<?xml version="1.0" encoding="UTF-8" standalone="no" ?>
<gpx xmlns="http://www.topografix.com/GPX/1/1" xmlns:xsi="http://www.w3.org/2001/XMLSchema-instance" xsi:schemaLocation="http://www.topografix.com/GPX/1/1 http://www.topografix.com/GPX/1/1/gpx.xsd" version="1.1" creator="VisuGPX - https://www.visugpx.com">
  <metadata>
    <name>Redon_Chateaulin</name>
    <desc><![CDATA[Randonnée cyclotouriste de Redon à Châteaulin par le chemin de halage du canal de Nantes à Brest avec quelques échappées vers Rostrenen, Carhaix et Pleyben.]]></desc>
  </metadata>
  <trk>
    <name><![CDATA[ACTIVE LOG 010]]></name>
    <trkseg>
      <trkpt lat="48.23509" lon="-3.3202">
        <ele>201.05285644531</ele>
        <time>2012-04-17T16:38:52Z</time>
      </trkpt>
      <trkpt lat="48.23506" lon="-3.32002">
        <ele>207.30139160156</ele>
        <time>2012-04-17T16:41:40Z</time>
      </trkpt>
      <trkpt lat="48.23536" lon="-3.3198">
        <ele>209.22412109375</ele>
        <time>2012-04-17T16:41:53Z</time>
      </trkpt>
      <trkpt lat="48.23583" lon="-3.31941">
        <ele>211.14672851562</ele>
        <time>2012-04-17T16:42:11Z</time>
      </trkpt>
      <trkpt lat="48.23598" lon="-3.31832">
        <ele>213.0693359375</ele>
        <time>2012-04-17T16:42:34Z</time>
      </trkpt>
      <trkpt lat="48.23598" lon="-3.31774">
        <ele>214.51123046875</ele>
        <time>2012-04-17T16:42:49Z</time>
      </trkpt>
      <trkpt lat="48.23603" lon="-3.31753">
        <ele>214.99194335938</ele>
        <time>2012-04-17T16:42:56Z</time>
      </trkpt>
      <trkpt lat="48.23599" lon="-3.31739">
        <ele>215.47265625</ele>
        <time>2012-04-17T16:43:01Z</time>
      </trkpt>
      <trkpt lat="48.23589" lon="-3.31729">
        <ele>214.51123046875</ele>
        <time>2012-04-17T16:43:08Z</time>
      </trkpt>
      <trkpt lat="48.23597" lon="-3.31719">
        <ele>215.47265625</ele>
        <time>2012-04-17T16:43:15Z</time>
      </trkpt>
      <trkpt lat="48.23641" lon="-3.3174">
        <ele>220.27917480469</ele>
        <time>2012-04-17T16:43:36Z</time>
      </trkpt>
      <trkpt lat="48.23685" lon="-3.31766">
        <ele>222.20178222656</ele>
        <time>2012-04-17T16:43:55Z</time>
      </trkpt>
      <trkpt lat="48.2373" lon="-3.31774">
        <ele>223.16320800781</ele>
        <time>2012-04-17T16:44:14Z</time>
      </trkpt>
      <trkpt lat="48.23771" lon="-3.31826">
        <ele>223.64379882812</ele>
        <time>2012-04-17T16:44:32Z</time>
      </trkpt>
      <trkpt lat="48.23779" lon="-3.31826">
        <ele>223.64379882812</ele>
        <time>2012-04-17T16:44:36Z</time>
      </trkpt>
      <trkpt lat="48.23816" lon="-3.31772">
        <ele>225.0859375</ele>
        <time>2012-04-17T16:44:54Z</time>
      </trkpt>
      <trkpt lat="48.23855" lon="-3.3171">
        <ele>227.48913574219</ele>
        <time>2012-04-17T16:45:14Z</time>
      </trkpt>
      <trkpt lat="48.2386" lon="-3.31701">
        <ele>226.52783203125</ele>
        <time>2012-04-17T16:45:27Z</time>
      </trkpt>
      <trkpt lat="48.23878" lon="-3.31677">
        <ele>226.52783203125</ele>
        <time>2012-04-17T16:47:09Z</time>
      </trkpt>
      <trkpt lat="48.23918" lon="-3.31621">
        <ele>224.12451171875</ele>
        <time>2012-04-17T16:47:26Z</time>
      </trkpt>
      <trkpt lat="48.23921" lon="-3.3162">
        <ele>224.12451171875</ele>
        <time>2012-04-17T16:47:29Z</time>
      </trkpt>
      <trkpt lat="48.23928" lon="-3.31623">
        <ele>223.64379882812</ele>
        <time>2012-04-17T16:47:35Z</time>
      </trkpt>
      <trkpt lat="48.23938" lon="-3.31616">
        <ele>222.68249511719</ele>
        <time>2012-04-17T16:47:49Z</time>
      </trkpt>
      <trkpt lat="48.23939" lon="-3.31613">
        <ele>222.68249511719</ele>
        <time>2012-04-17T16:48:11Z</time>
      </trkpt>
      <trkpt lat="48.23946" lon="-3.31603">
        <ele>222.20178222656</ele>
        <time>2012-04-17T16:48:15Z</time>
      </trkpt>
      <trkpt lat="48.24025" lon="-3.31554">
        <ele>218.35656738281</ele>
        <time>2012-04-17T16:48:31Z</time>
      </trkpt>
      <trkpt lat="48.24059" lon="-3.31528">
        <ele>216.43395996094</ele>
        <time>2012-04-17T16:48:37Z</time>
      </trkpt>
      <trkpt lat="48.24114" lon="-3.31427">
        <ele>214.03063964844</ele>
        <time>2012-04-17T16:48:50Z</time>
      </trkpt>
      <trkpt lat="48.24166" lon="-3.31234">
        <ele>214.51123046875</ele>
        <time>2012-04-17T16:49:11Z</time>
      </trkpt>
      <trkpt lat="48.24182" lon="-3.31067">
        <ele>215.95324707031</ele>
        <time>2012-04-17T16:49:30Z</time>
      </trkpt>
      <trkpt lat="48.24179" lon="-3.31035">
        <ele>215.95324707031</ele>
        <time>2012-04-17T16:49:34Z</time>
      </trkpt>
      <trkpt lat="48.24178" lon="-3.31023">
        <ele>216.43395996094</ele>
        <time>2012-04-17T16:49:38Z</time>
      </trkpt>
      <trkpt lat="48.24191" lon="-3.3098">
        <ele>216.91467285156</ele>
        <time>2012-04-17T16:49:48Z</time>
      </trkpt>
      <trkpt lat="48.24234" lon="-3.30916">
        <ele>217.8759765625</ele>
        <time>2012-04-17T16:49:59Z</time>
      </trkpt>
      <trkpt lat="48.24257" lon="-3.30948">
        <ele>217.39538574219</ele>
        <time>2012-04-17T16:50:08Z</time>
      </trkpt>
      <trkpt lat="48.24256" lon="-3.30982">
        <ele>216.43395996094</ele>
        <time>2012-04-17T16:50:13Z</time>
      </trkpt>
      <trkpt lat="48.24253" lon="-3.30995">
        <ele>216.43395996094</ele>
        <time>2012-04-17T16:50:15Z</time>
      </trkpt>
      <trkpt lat="48.24251" lon="-3.31002">
        <ele>215.95324707031</ele>
        <time>2012-04-17T16:50:18Z</time>
      </trkpt>
      <trkpt lat="48.2425" lon="-3.31035">
        <ele>215.47265625</ele>
        <time>2012-04-17T16:50:21Z</time>
      </trkpt>
      <trkpt lat="48.24244" lon="-3.31061">
        <ele>215.47265625</ele>
        <time>2012-04-17T16:50:25Z</time>
      </trkpt>
      <trkpt lat="48.24239" lon="-3.3108">
        <ele>214.99194335938</ele>
        <time>2012-04-17T16:50:28Z</time>
      </trkpt>
      <trkpt lat="48.24235" lon="-3.31116">
        <ele>213.55004882812</ele>
        <time>2012-04-17T16:50:33Z</time>
      </trkpt>
      <trkpt lat="48.24238" lon="-3.31168">
        <ele>212.10803222656</ele>
        <time>2012-04-17T16:50:40Z</time>
      </trkpt>
      <trkpt lat="48.24229" lon="-3.31237">
        <ele>210.18542480469</ele>
        <time>2012-04-17T16:50:49Z</time>
      </trkpt>
      <trkpt lat="48.24223" lon="-3.31264">
        <ele>209.70483398438</ele>
        <time>2012-04-17T16:50:53Z</time>
      </trkpt>
      <trkpt lat="48.24218" lon="-3.31288">
        <ele>209.70483398438</ele>
        <time>2012-04-17T16:50:57Z</time>
      </trkpt>
      <trkpt lat="48.24206" lon="-3.31345">
        <ele>209.70483398438</ele>
        <time>2012-04-17T16:51:11Z</time>
      </trkpt>
      <trkpt lat="48.24204" lon="-3.31356">
        <ele>208.74340820312</ele>
        <time>2012-04-17T16:51:16Z</time>
      </trkpt>
      <trkpt lat="48.24261" lon="-3.31378">
        <ele>206.34008789062</ele>
        <time>2012-04-17T16:51:24Z</time>
      </trkpt>
      <trkpt lat="48.24264" lon="-3.31377">
        <ele>203.93688964844</ele>
        <time>2012-04-17T16:52:04Z</time>
      </trkpt>
      <trkpt lat="48.24256" lon="-3.31379">
        <ele>211.14672851562</ele>
        <time>2012-04-17T16:58:46Z</time>
      </trkpt>
      <trkpt lat="48.24256" lon="-3.31379">
        <ele>211.14672851562</ele>
        <time>2012-04-17T16:58:58Z</time>
      </trkpt>
      <trkpt lat="48.24249" lon="-3.31375">
        <ele>211.62744140625</ele>
        <time>2012-04-17T16:59:04Z</time>
      </trkpt>
      <trkpt lat="48.24235" lon="-3.31306">
        <ele>211.14672851562</ele>
        <time>2012-04-17T16:59:18Z</time>
      </trkpt>
      <trkpt lat="48.24231" lon="-3.31227">
        <ele>212.58862304688</ele>
        <time>2012-04-17T16:59:33Z</time>
      </trkpt>
      <trkpt lat="48.24235" lon="-3.31124">
        <ele>215.47265625</ele>
        <time>2012-04-17T16:59:52Z</time>
      </trkpt>
      <trkpt lat="48.24245" lon="-3.31057">
        <ele>216.91467285156</ele>
        <time>2012-04-17T17:00:06Z</time>
      </trkpt>
      <trkpt lat="48.24251" lon="-3.3102">
        <ele>217.8759765625</ele>
        <time>2012-04-17T17:00:16Z</time>
      </trkpt>
      <trkpt lat="48.24207" lon="-3.31007">
        <ele>217.8759765625</ele>
        <time>2012-04-17T17:00:27Z</time>
      </trkpt>
      <trkpt lat="48.2418" lon="-3.3104">
        <ele>217.39538574219</ele>
        <time>2012-04-17T17:00:35Z</time>
      </trkpt>
      <trkpt lat="48.2418" lon="-3.31047">
        <ele>216.91467285156</ele>
        <time>2012-04-17T17:00:36Z</time>
      </trkpt>
      <trkpt lat="48.24182" lon="-3.31068">
        <ele>216.91467285156</ele>
        <time>2012-04-17T17:00:39Z</time>
      </trkpt>
      <trkpt lat="48.24163" lon="-3.31256">
        <ele>216.43395996094</ele>
        <time>2012-04-17T17:01:06Z</time>
      </trkpt>
      <trkpt lat="48.24126" lon="-3.31385">
        <ele>216.43395996094</ele>
        <time>2012-04-17T17:01:27Z</time>
      </trkpt>
      <trkpt lat="48.24114" lon="-3.31427">
        <ele>216.43395996094</ele>
        <time>2012-04-17T17:01:40Z</time>
      </trkpt>
      <trkpt lat="48.24085" lon="-3.31411">
        <ele>218.83728027344</ele>
        <time>2012-04-17T17:01:50Z</time>
      </trkpt>
      <trkpt lat="48.24039" lon="-3.31388">
        <ele>223.64379882812</ele>
        <time>2012-04-17T17:02:11Z</time>
      </trkpt>
      <trkpt lat="48.23991" lon="-3.31367">
        <ele>229.41174316406</ele>
        <time>2012-04-17T17:02:32Z</time>
      </trkpt>
      <trkpt lat="48.23941" lon="-3.31372">
        <ele>230.85375976562</ele>
        <time>2012-04-17T17:02:52Z</time>
      </trkpt>
      <trkpt lat="48.23896" lon="-3.3136">
        <ele>231.81494140625</ele>
        <time>2012-04-17T17:03:10Z</time>
      </trkpt>
      <trkpt lat="48.23881" lon="-3.31351">
        <ele>232.77648925781</ele>
        <time>2012-04-17T17:03:16Z</time>
      </trkpt>
      <trkpt lat="48.2384" lon="-3.31329">
        <ele>233.73767089844</ele>
        <time>2012-04-17T17:03:36Z</time>
      </trkpt>
      <trkpt lat="48.2384" lon="-3.31329">
        <ele>233.73767089844</ele>
        <time>2012-04-17T17:03:43Z</time>
      </trkpt>
      <trkpt lat="48.23847" lon="-3.31332">
        <ele>233.73767089844</ele>
        <time>2012-04-17T17:03:50Z</time>
      </trkpt>
      <trkpt lat="48.23874" lon="-3.31348">
        <ele>232.29577636719</ele>
        <time>2012-04-17T17:04:01Z</time>
      </trkpt>
      <trkpt lat="48.23874" lon="-3.31348">
        <ele>232.29577636719</ele>
        <time>2012-04-17T17:04:11Z</time>
      </trkpt>
      <trkpt lat="48.23874" lon="-3.31348">
        <ele>232.29577636719</ele>
        <time>2012-04-17T17:04:14Z</time>
      </trkpt>
      <trkpt lat="48.2387" lon="-3.31349">
        <ele>232.29577636719</ele>
        <time>2012-04-17T17:04:20Z</time>
      </trkpt>
      <trkpt lat="48.23866" lon="-3.31348">
        <ele>232.77648925781</ele>
        <time>2012-04-17T17:04:22Z</time>
      </trkpt>
      <trkpt lat="48.23833" lon="-3.31334">
        <ele>235.66027832031</ele>
        <time>2012-04-17T17:04:38Z</time>
      </trkpt>
      <trkpt lat="48.23802" lon="-3.31327">
        <ele>235.1796875</ele>
        <time>2012-04-17T17:04:53Z</time>
      </trkpt>
      <trkpt lat="48.23771" lon="-3.31295">
        <ele>234.69909667969</ele>
        <time>2012-04-17T17:05:05Z</time>
      </trkpt>
      <trkpt lat="48.23753" lon="-3.31262">
        <ele>235.1796875</ele>
        <time>2012-04-17T17:05:12Z</time>
      </trkpt>
      <trkpt lat="48.23737" lon="-3.31241">
        <ele>234.21838378906</ele>
        <time>2012-04-17T17:05:17Z</time>
      </trkpt>
      <trkpt lat="48.23678" lon="-3.31205">
        <ele>232.29577636719</ele>
        <time>2012-04-17T17:05:36Z</time>
      </trkpt>
      <trkpt lat="48.23669" lon="-3.312">
        <ele>232.77648925781</ele>
        <time>2012-04-17T17:05:42Z</time>
      </trkpt>
      <trkpt lat="48.23661" lon="-3.31186">
        <ele>232.77648925781</ele>
        <time>2012-04-17T17:05:46Z</time>
      </trkpt>
      <trkpt lat="48.23678" lon="-3.31106">
        <ele>233.73767089844</ele>
        <time>2012-04-17T17:06:07Z</time>
      </trkpt>
      <trkpt lat="48.23653" lon="-3.31083">
        <ele>235.1796875</ele>
        <time>2012-04-17T17:06:17Z</time>
      </trkpt>
      <trkpt lat="48.23592" lon="-3.31041">
        <ele>237.10229492188</ele>
        <time>2012-04-17T17:06:37Z</time>
      </trkpt>
      <trkpt lat="48.23512" lon="-3.30997">
        <ele>241.90893554688</ele>
        <time>2012-04-17T17:07:00Z</time>
      </trkpt>
      <trkpt lat="48.23414" lon="-3.30979">
        <ele>241.42822265625</ele>
        <time>2012-04-17T17:07:25Z</time>
      </trkpt>
      <trkpt lat="48.23375" lon="-3.30975">
        <ele>241.42822265625</ele>
        <time>2012-04-17T17:07:34Z</time>
      </trkpt>
      <trkpt lat="48.23359" lon="-3.30972">
        <ele>240.46704101562</ele>
        <time>2012-04-17T17:07:38Z</time>
      </trkpt>
      <trkpt lat="48.23324" lon="-3.30884">
        <ele>239.98620605469</ele>
        <time>2012-04-17T17:07:54Z</time>
      </trkpt>
      <trkpt lat="48.23316" lon="-3.30746">
        <ele>239.50549316406</ele>
        <time>2012-04-17T17:08:14Z</time>
      </trkpt>
      <trkpt lat="48.23307" lon="-3.30697">
        <ele>239.50549316406</ele>
        <time>2012-04-17T17:08:21Z</time>
      </trkpt>
      <trkpt lat="48.23298" lon="-3.30673">
        <ele>239.98620605469</ele>
        <time>2012-04-17T17:08:25Z</time>
      </trkpt>
      <trkpt lat="48.23284" lon="-3.30635">
        <ele>239.98620605469</ele>
        <time>2012-04-17T17:08:32Z</time>
      </trkpt>
      <trkpt lat="48.23279" lon="-3.30605">
        <ele>239.98620605469</ele>
        <time>2012-04-17T17:08:37Z</time>
      </trkpt>
      <trkpt lat="48.2327" lon="-3.3056">
        <ele>239.98620605469</ele>
        <time>2012-04-17T17:08:44Z</time>
      </trkpt>
      <trkpt lat="48.23274" lon="-3.30484">
        <ele>239.02490234375</ele>
        <time>2012-04-17T17:08:57Z</time>
      </trkpt>
      <trkpt lat="48.23275" lon="-3.3044">
        <ele>238.06359863281</ele>
        <time>2012-04-17T17:09:04Z</time>
      </trkpt>
      <trkpt lat="48.23242" lon="-3.30382">
        <ele>236.62170410156</ele>
        <time>2012-04-17T17:09:15Z</time>
      </trkpt>
      <trkpt lat="48.23237" lon="-3.3038">
        <ele>236.62170410156</ele>
        <time>2012-04-17T17:09:16Z</time>
      </trkpt>
      <trkpt lat="48.2313" lon="-3.30342">
        <ele>237.10229492188</ele>
        <time>2012-04-17T17:09:40Z</time>
      </trkpt>
      <trkpt lat="48.23061" lon="-3.30303">
        <ele>237.58288574219</ele>
        <time>2012-04-17T17:09:59Z</time>
      </trkpt>
      <trkpt lat="48.23049" lon="-3.30249">
        <ele>238.06359863281</ele>
        <time>2012-04-17T17:10:10Z</time>
      </trkpt>
      <trkpt lat="48.23067" lon="-3.30216">
        <ele>238.06359863281</ele>
        <time>2012-04-17T17:10:26Z</time>
      </trkpt>
      <trkpt lat="48.23031" lon="-3.30115">
        <ele>238.06359863281</ele>
        <time>2012-04-17T17:10:34Z</time>
      </trkpt>
      <trkpt lat="48.23038" lon="-3.30074">
        <ele>236.62170410156</ele>
        <time>2012-04-17T17:10:41Z</time>
      </trkpt>
      <trkpt lat="48.23046" lon="-3.30054">
        <ele>235.1796875</ele>
        <time>2012-04-17T17:10:45Z</time>
      </trkpt>
      <trkpt lat="48.23058" lon="-3.30034">
        <ele>233.73767089844</ele>
        <time>2012-04-17T17:10:49Z</time>
      </trkpt>
      <trkpt lat="48.23105" lon="-3.29982">
        <ele>225.56652832031</ele>
        <time>2012-04-17T17:11:01Z</time>
      </trkpt>
      <trkpt lat="48.23116" lon="-3.29962">
        <ele>223.64379882812</ele>
        <time>2012-04-17T17:11:05Z</time>
      </trkpt>
      <trkpt lat="48.2312" lon="-3.29951">
        <ele>222.68249511719</ele>
        <time>2012-04-17T17:11:07Z</time>
      </trkpt>
      <trkpt lat="48.23133" lon="-3.29932">
        <ele>222.68249511719</ele>
        <time>2012-04-17T17:11:11Z</time>
      </trkpt>
      <trkpt lat="48.23152" lon="-3.29916">
        <ele>222.68249511719</ele>
        <time>2012-04-17T17:11:16Z</time>
      </trkpt>
      <trkpt lat="48.23182" lon="-3.29881">
        <ele>219.79858398438</ele>
        <time>2012-04-17T17:11:26Z</time>
      </trkpt>
      <trkpt lat="48.23166" lon="-3.29861">
        <ele>219.79858398438</ele>
        <time>2012-04-17T17:11:33Z</time>
      </trkpt>
      <trkpt lat="48.2316" lon="-3.2986">
        <ele>219.79858398438</ele>
        <time>2012-04-17T17:11:35Z</time>
      </trkpt>
      <trkpt lat="48.23153" lon="-3.29855">
        <ele>219.31799316406</ele>
        <time>2012-04-17T17:11:38Z</time>
      </trkpt>
      <trkpt lat="48.23151" lon="-3.29852">
        <ele>218.83728027344</ele>
        <time>2012-04-17T17:11:52Z</time>
      </trkpt>
      <trkpt lat="48.23151" lon="-3.29852">
        <ele>218.83728027344</ele>
        <time>2012-04-17T17:11:59Z</time>
      </trkpt>
    </trkseg>
  </trk>
</gpx>